createdAt,value
2018-11-27T00:00:33.531Z,79.41
2018-11-27T00:03:04.649Z,79.35
2018-11-27T00:05:34.525Z,79.91
2018-11-27T00:08:03.577Z,80.05
2018-11-27T00:10:33.984Z,79.91
2018-11-27T00:13:02.973Z,80.05
2018-11-27T00:15:31.944Z,79.73
2018-11-27T00:18:00.921Z,79.79
2018-11-27T00:20:29.951Z,80.39
2018-11-27T00:22:58.936Z,80.71
2018-11-27T00:25:27.922Z,80.61
2018-11-27T00:27:56.941Z,81.43
2018-11-27T00:30:25.924Z,80.72
2018-11-27T00:32:54.915Z,80.91
2018-11-27T00:35:23.918Z,80.98
2018-11-27T00:37:52.899Z,80.60
2018-11-27T00:40:22.913Z,81.15
2018-11-27T00:42:51.912Z,81.41
2018-11-27T00:45:21.617Z,80.92
2018-11-27T00:47:51.308Z,80.95
2018-11-27T00:50:22.484Z,80.27
2018-11-27T00:52:51.469Z,80.60
2018-11-27T00:55:21.072Z,81.00
2018-11-27T00:57:51.235Z,80.86
2018-11-27T01:00:21.292Z,81.11
2018-11-27T01:02:50.276Z,80.71
2018-11-27T01:05:20.625Z,80.88
2018-11-27T01:07:49.587Z,79.99
2018-11-27T01:10:22.741Z,80.36
2018-11-27T01:12:51.815Z,79.86
2018-11-27T01:15:20.800Z,80.25
2018-11-27T01:17:51.028Z,79.85
2018-11-27T01:20:20.828Z,79.45
2018-11-27T01:22:49.826Z,79.69
2018-11-27T01:25:18.795Z,79.91
2018-11-27T01:27:47.780Z,79.86
2018-11-27T01:30:18.615Z,79.63
2018-11-27T01:32:47.801Z,79.38
2018-11-27T01:35:21.155Z,79.48
2018-11-27T01:37:51.235Z,80.09
2018-11-27T01:40:22.238Z,79.94
2018-11-27T01:42:52.319Z,79.86
2018-11-27T01:45:21.807Z,80.22
2018-11-27T01:47:50.982Z,80.35
2018-11-27T01:50:20.404Z,80.49
2018-11-27T01:52:49.510Z,80.52
2018-11-27T01:55:19.421Z,80.14
2018-11-27T01:57:48.462Z,80.05
2018-11-27T02:00:23.316Z,80.16
2018-11-27T02:02:52.667Z,80.17
2018-11-27T02:05:22.245Z,80.40
2018-11-27T02:07:51.251Z,80.22
2018-11-27T02:10:20.235Z,80.80
2018-11-27T02:12:50.216Z,80.54
2018-11-27T02:15:20.198Z,80.37
2018-11-27T02:17:49.157Z,80.41
2018-11-27T02:20:18.144Z,80.57
2018-11-27T02:22:47.119Z,80.26
2018-11-27T02:25:27.633Z,80.38
2018-11-27T02:27:56.815Z,80.47
2018-11-27T02:30:26.718Z,79.79
2018-11-27T02:32:55.754Z,79.69
2018-11-27T02:35:25.645Z,79.59
2018-11-27T02:37:55.748Z,79.43
2018-11-27T02:40:24.807Z,79.18
2018-11-27T02:42:53.891Z,79.15
2018-11-27T02:45:24.074Z,78.83
2018-11-27T02:47:53.717Z,78.78
2018-11-27T02:50:23.680Z,79.24
2018-11-27T02:52:52.697Z,79.15
2018-11-27T02:55:23.681Z,79.11
2018-11-27T02:57:52.696Z,78.71
2018-11-27T03:00:23.740Z,79.00
2018-11-27T03:02:52.729Z,78.89
2018-11-27T03:05:34.632Z,78.85
2018-11-27T03:08:03.699Z,79.08
2018-11-27T03:10:32.838Z,79.02
2018-11-27T03:13:01.832Z,78.85
2018-11-27T03:15:30.827Z,78.88
2018-11-27T03:17:59.807Z,79.32
2018-11-27T03:20:28.786Z,78.78
2018-11-27T03:22:57.857Z,78.58
2018-11-27T03:25:26.861Z,78.96
2018-11-27T03:27:55.835Z,78.99
2018-11-27T03:30:26.010Z,78.68
2018-11-27T03:32:55.151Z,78.92
2018-11-27T03:35:25.051Z,79.00
2018-11-27T03:37:54.178Z,79.28
2018-11-27T03:40:26.571Z,79.09
2018-11-27T03:42:55.639Z,78.73
2018-11-27T03:45:25.269Z,78.89
2018-11-27T03:47:54.255Z,78.69
2018-11-27T03:50:26.393Z,78.58
2018-11-27T03:52:55.370Z,78.19
2018-11-27T03:55:24.378Z,78.00
2018-11-27T03:57:53.639Z,78.17
2018-11-27T04:00:24.473Z,77.90
2018-11-27T04:02:56.934Z,77.83
2018-11-27T04:05:26.427Z,77.52
2018-11-27T04:07:55.419Z,77.45
2018-11-27T04:10:24.470Z,77.25
2018-11-27T04:12:53.433Z,77.10
2018-11-27T04:15:22.399Z,77.14
2018-11-27T04:17:51.373Z,77.00
2018-11-27T04:20:20.400Z,77.17
2018-11-27T04:22:49.389Z,77.25
2018-11-27T04:25:18.943Z,77.17
2018-11-27T04:27:48.411Z,77.17
2018-11-27T04:30:19.052Z,77.41
2018-11-27T04:32:48.048Z,77.54
2018-11-27T04:35:18.922Z,77.35
2018-11-27T04:37:48.158Z,77.27
2018-11-27T04:40:19.201Z,77.28
2018-11-27T04:42:48.216Z,77.39
2018-11-27T04:45:20.480Z,77.35
2018-11-27T04:47:49.457Z,77.57
2018-11-27T04:50:18.861Z,77.21
2018-11-27T04:52:47.932Z,77.09
2018-11-27T04:55:19.871Z,77.31
2018-11-27T04:57:48.802Z,77.36
2018-11-27T05:00:19.678Z,77.22
2018-11-27T05:02:48.697Z,77.07
2018-11-27T05:05:17.710Z,77.05
2018-11-27T05:07:46.745Z,77.24
2018-11-27T05:10:17.161Z,77.17
2018-11-27T05:12:46.230Z,76.76
2018-11-27T05:15:17.120Z,76.86
2018-11-27T05:17:48.253Z,76.95
2018-11-27T05:20:16.282Z,77.23
2018-11-27T05:22:45.257Z,77.56
2018-11-27T05:25:18.133Z,77.59
2018-11-27T05:27:48.322Z,77.45
2018-11-27T05:30:19.333Z,77.41
2018-11-27T05:32:48.335Z,77.28
2018-11-27T05:35:19.475Z,77.48
2018-11-27T05:37:49.123Z,77.87
2018-11-27T05:40:20.118Z,77.76
2018-11-27T05:42:51.474Z,77.57
2018-11-27T05:45:21.391Z,77.44
2018-11-27T05:47:50.403Z,77.63
2018-11-27T05:50:19.571Z,77.46
2018-11-27T05:52:48.570Z,77.97
2018-11-27T05:55:17.875Z,77.92
2018-11-27T05:57:49.199Z,77.75
2018-11-27T06:00:22.397Z,77.75
2018-11-27T06:02:52.653Z,77.58
2018-11-27T06:05:22.330Z,78.16
2018-11-27T06:07:51.294Z,78.02
2018-11-27T06:10:21.167Z,77.86
2018-11-27T06:12:50.157Z,78.08
2018-11-27T06:15:20.265Z,77.87
2018-11-27T06:17:50.598Z,77.83
2018-11-27T06:20:20.682Z,77.77
2018-11-27T06:22:49.758Z,77.74
2018-11-27T06:25:20.857Z,77.70
2018-11-27T06:27:52.485Z,77.95
2018-11-27T06:30:23.575Z,78.02
2018-11-27T06:32:52.621Z,77.74
2018-11-27T06:35:30.036Z,77.98
2018-11-27T06:37:59.044Z,78.25
2018-11-27T06:40:29.329Z,78.15
2018-11-27T06:42:58.338Z,77.82
2018-11-27T06:45:27.326Z,78.06
2018-11-27T06:47:56.303Z,78.01
2018-11-27T06:50:25.290Z,78.53
2018-11-27T06:52:54.260Z,78.43
2018-11-27T06:55:24.121Z,78.45
2018-11-27T06:57:53.125Z,78.23
2018-11-27T07:00:24.560Z,78.60
2018-11-27T07:02:54.243Z,78.21
2018-11-27T07:05:23.208Z,78.18
2018-11-27T07:07:52.208Z,78.15
2018-11-27T07:10:31.284Z,78.07
2018-11-27T07:13:02.280Z,78.03
2018-11-27T07:15:31.290Z,78.55
2018-11-27T07:18:00.269Z,78.24
2018-11-27T07:20:29.249Z,78.30
2018-11-27T07:22:58.246Z,78.41
2018-11-27T07:25:27.258Z,78.12
2018-11-27T07:27:56.225Z,78.16
2018-11-27T07:30:25.516Z,78.06
2018-11-27T07:32:54.523Z,78.04
2018-11-27T07:35:23.531Z,77.91
2018-11-27T07:37:52.542Z,77.67
2018-11-27T07:40:23.548Z,77.40
2018-11-27T07:42:54.832Z,77.63
2018-11-27T07:45:24.269Z,77.59
2018-11-27T07:47:53.270Z,77.65
2018-11-27T07:50:22.294Z,77.53
2018-11-27T07:52:51.320Z,77.63
2018-11-27T07:55:21.455Z,77.59
2018-11-27T07:57:51.294Z,77.41
2018-11-27T08:00:22.715Z,77.29
2018-11-27T08:02:55.837Z,76.94
2018-11-27T08:05:28.174Z,76.75
2018-11-27T08:07:57.692Z,76.73
2018-11-27T08:10:31.598Z,76.29
2018-11-27T08:13:00.586Z,76.00
2018-11-27T08:15:30.691Z,75.72
2018-11-27T08:17:59.680Z,75.79
2018-11-27T08:20:29.508Z,75.77
2018-11-27T08:22:58.564Z,75.96
2018-11-27T08:25:27.581Z,75.58
2018-11-27T08:27:56.553Z,75.72
2018-11-27T08:30:25.846Z,75.76
2018-11-27T08:32:55.551Z,75.69
2018-11-27T08:35:26.821Z,75.94
2018-11-27T08:37:57.071Z,75.85
2018-11-27T08:40:27.073Z,75.24
2018-11-27T08:42:56.082Z,75.70
2018-11-27T08:45:25.396Z,75.36
2018-11-27T08:47:55.204Z,75.56
2018-11-27T08:50:25.314Z,75.38
2018-11-27T08:52:55.533Z,75.19
2018-11-27T08:55:41.430Z,75.27
2018-11-27T08:58:15.955Z,74.88
2018-11-27T09:00:44.954Z,75.11
2018-11-27T09:03:13.983Z,74.88
2018-11-27T09:05:42.969Z,74.15
2018-11-27T09:08:11.992Z,74.52
2018-11-27T09:10:40.986Z,74.61
2018-11-27T09:13:09.978Z,74.22
2018-11-27T09:15:38.985Z,73.81
2018-11-27T09:18:12.607Z,73.41
2018-11-27T09:20:41.602Z,73.79
2018-11-27T09:23:10.607Z,73.73
2018-11-27T09:25:39.594Z,73.25
2018-11-27T09:28:08.616Z,73.12
2018-11-27T09:30:37.609Z,73.43
2018-11-27T09:33:07.467Z,72.90
2018-11-27T09:35:36.552Z,72.24
2018-11-27T09:38:07.042Z,71.89
2018-11-27T09:40:36.220Z,71.38
2018-11-27T09:43:05.588Z,71.29
2018-11-27T09:45:34.740Z,70.82
2018-11-27T09:48:03.798Z,70.91
2018-11-27T09:50:32.798Z,70.97
2018-11-27T09:53:01.838Z,70.94
2018-11-27T09:55:30.803Z,71.23
2018-11-27T09:57:59.795Z,70.97
2018-11-27T10:00:30.585Z,70.62
2018-11-27T10:03:00.812Z,70.19
2018-11-27T10:05:29.812Z,70.03
2018-11-27T10:07:58.809Z,70.29
2018-11-27T10:10:27.803Z,70.27
2018-11-27T10:12:56.877Z,69.76
2018-11-27T10:15:26.820Z,69.86
2018-11-27T10:17:57.739Z,69.38
2018-11-27T10:20:27.977Z,69.51
2018-11-27T10:22:56.986Z,69.33
2018-11-27T10:25:26.026Z,69.24
2018-11-27T10:27:55.012Z,68.97
2018-11-27T10:30:25.572Z,68.30
2018-11-27T10:32:55.696Z,68.01
2018-11-27T10:35:32.029Z,68.36
2018-11-27T10:38:01.007Z,67.72
2018-11-27T10:40:29.983Z,67.20
2018-11-27T10:42:58.950Z,66.62
2018-11-27T10:45:27.959Z,66.65
2018-11-27T10:47:57.109Z,66.86
2018-11-27T10:50:26.081Z,66.34
2018-11-27T10:52:56.525Z,66.91
2018-11-27T10:55:25.743Z,66.43
2018-11-27T10:57:54.718Z,66.19
2018-11-27T11:01:33.491Z,65.59
2018-11-27T11:04:02.509Z,66.64
2018-11-27T11:06:32.176Z,66.93
2018-11-27T11:09:01.766Z,67.26
2018-11-27T11:11:30.745Z,66.25
2018-11-27T11:13:59.783Z,65.01
2018-11-27T11:16:28.922Z,65.34
2018-11-27T11:18:57.938Z,64.90
2018-11-27T11:21:26.944Z,64.38
2018-11-27T11:23:55.944Z,64.09
2018-11-27T11:26:25.089Z,63.79
2018-11-27T11:28:54.088Z,63.73
2018-11-27T11:31:23.072Z,63.72
2018-11-27T11:33:52.037Z,63.73
2018-11-27T11:36:21.111Z,64.23
2018-11-27T11:38:50.161Z,63.17
2018-11-27T11:41:19.131Z,62.77
2018-11-27T11:43:48.122Z,63.10
2018-11-27T11:46:17.092Z,63.54
2018-11-27T11:48:46.075Z,63.08
2018-11-27T11:51:15.042Z,63.19
2018-11-27T11:53:44.088Z,63.23
2018-11-27T11:56:13.101Z,62.45
2018-11-27T11:58:42.094Z,62.58
2018-11-27T12:01:11.096Z,62.58
2018-11-27T12:03:40.124Z,62.17
2018-11-27T12:06:09.114Z,62.49
2018-11-27T12:08:38.100Z,62.64
2018-11-27T12:11:07.080Z,62.01
2018-11-27T12:19:35.938Z,61.98
2018-11-27T12:22:04.963Z,61.67
2018-11-27T12:24:33.974Z,61.92
2018-11-27T12:27:02.979Z,61.95
2018-11-27T12:38:12.886Z,62.31
2018-11-27T12:40:41.856Z,62.17
2018-11-27T12:43:10.855Z,62.14
2018-11-27T12:45:39.834Z,61.63
2018-11-27T12:48:08.830Z,61.77
2018-11-27T12:50:42.139Z,62.15
2018-11-27T12:53:16.736Z,62.97
2018-11-27T12:55:42.786Z,62.29
2018-11-27T12:58:11.810Z,62.35
2018-11-27T13:00:40.776Z,62.02
2018-11-27T13:03:09.752Z,61.91
2018-11-27T13:05:41.019Z,61.77
2018-11-27T13:08:15.542Z,62.41
2018-11-27T13:10:44.549Z,62.94
2018-11-27T13:13:13.556Z,63.19
2018-11-27T13:15:43.216Z,63.33
2018-11-27T13:18:12.186Z,63.52
2018-11-27T13:20:41.730Z,63.37
2018-11-27T13:23:10.744Z,63.61
2018-11-27T13:25:39.919Z,63.21
2018-11-27T13:28:10.987Z,63.44
2018-11-27T13:30:42.116Z,63.25
2018-11-27T13:33:15.310Z,63.21
2018-11-27T13:35:44.333Z,63.62
2018-11-27T13:38:13.336Z,63.57
2018-11-27T13:40:42.308Z,63.21
2018-11-27T13:43:16.587Z,63.24
2018-11-27T13:45:45.560Z,63.93
2018-11-27T13:48:14.561Z,64.06
2018-11-27T13:50:43.552Z,63.76
2018-11-27T13:53:12.541Z,64.75
2018-11-27T13:55:41.534Z,64.94
2018-11-27T13:58:10.600Z,64.69
2018-11-27T14:00:39.615Z,64.72
2018-11-27T14:03:10.956Z,64.93
2018-11-27T14:05:37.888Z,64.85
2018-11-27T14:08:08.246Z,64.66
2018-11-27T14:10:38.343Z,65.11
2018-11-27T14:13:08.472Z,64.85
2018-11-27T14:15:37.800Z,65.10
2018-11-27T14:18:07.399Z,65.25
2018-11-27T14:20:36.463Z,65.74
2018-11-27T14:23:06.002Z,65.90
2018-11-27T14:25:35.051Z,66.20
2018-11-27T14:28:04.051Z,65.71
2018-11-27T14:30:33.045Z,66.09
2018-11-27T14:33:02.070Z,66.46
2018-11-27T14:35:31.070Z,66.68
2018-11-27T14:38:00.065Z,66.66
2018-11-27T14:40:29.057Z,66.71
2018-11-27T14:42:58.072Z,66.26
2018-11-27T14:45:27.556Z,66.28
2018-11-27T14:47:58.759Z,66.14
2018-11-27T14:50:27.737Z,66.22
2018-11-27T14:52:56.748Z,66.83
2018-11-27T14:55:27.848Z,67.37
2018-11-27T14:57:56.870Z,67.53
2018-11-27T15:00:26.531Z,64.53
2018-11-27T15:02:55.652Z,64.53
2018-11-27T15:05:33.999Z,65.00
2018-11-27T15:08:03.538Z,65.75
2018-11-27T15:10:32.593Z,66.57
2018-11-27T15:13:01.601Z,66.39
2018-11-27T15:15:30.621Z,65.50
2018-11-27T15:17:59.592Z,64.95
2018-11-27T15:20:28.603Z,64.79
2018-11-27T15:22:57.599Z,63.81
2018-11-27T15:25:26.608Z,63.87
2018-11-27T15:27:55.590Z,63.80
2018-11-27T15:30:27.937Z,63.69
2018-11-27T15:32:57.908Z,63.49
2018-11-27T15:35:26.975Z,63.67
2018-11-27T15:37:56.067Z,63.06
2018-11-27T15:40:29.060Z,61.87
2018-11-27T15:42:58.392Z,61.94
2018-11-27T15:45:29.601Z,60.69
2018-11-27T15:47:58.590Z,59.52
2018-11-27T15:50:27.659Z,59.27
2018-11-27T15:52:56.656Z,59.35
2018-11-27T15:55:27.863Z,59.50
2018-11-27T15:57:58.455Z,59.43
2018-11-27T16:00:27.475Z,60.39
2018-11-27T16:02:56.521Z,59.84
2018-11-27T16:05:25.553Z,59.45
2018-11-27T16:07:54.558Z,59.65
2018-11-27T16:10:23.573Z,59.56
2018-11-27T16:12:52.582Z,59.64
2018-11-27T16:15:21.629Z,59.56
2018-11-27T16:17:50.818Z,59.28
2018-11-27T16:20:20.916Z,58.72
2018-11-27T16:22:50.872Z,58.68
2018-11-27T16:25:22.795Z,57.76
2018-11-27T16:27:51.944Z,58.11
2018-11-27T16:30:23.008Z,58.99
2018-11-27T16:32:52.091Z,59.07
2018-11-27T16:35:21.198Z,59.35
2018-11-27T16:37:51.679Z,60.06
2018-11-27T16:40:21.987Z,59.65
2018-11-27T16:42:50.955Z,59.80
2018-11-27T16:45:20.949Z,59.28
2018-11-27T16:47:51.312Z,58.10
2018-11-27T16:50:22.265Z,58.06
2018-11-27T16:52:51.921Z,57.33
2018-11-27T16:55:22.074Z,57.70
2018-11-27T16:57:51.165Z,57.69
2018-11-27T17:00:26.422Z,57.68
2018-11-27T17:02:56.567Z,57.66
2018-11-27T17:05:26.687Z,57.51
2018-11-27T17:07:55.747Z,57.60
2018-11-27T17:10:24.789Z,57.85
2018-11-27T17:12:55.085Z,57.34
2018-11-27T17:15:25.377Z,57.78
2018-11-27T17:17:54.960Z,57.83
2018-11-27T17:20:29.272Z,57.79
2018-11-27T17:22:59.529Z,57.70
2018-11-27T17:25:28.587Z,57.92
2018-11-27T17:28:06.289Z,58.05
2018-11-27T17:30:42.925Z,58.23
2018-11-27T17:33:16.329Z,57.52
2018-11-27T17:35:45.440Z,57.78
2018-11-27T17:38:14.456Z,57.79
2018-11-27T17:40:43.495Z,58.15
2018-11-27T17:43:12.642Z,57.88
2018-11-27T17:45:41.628Z,57.81
2018-11-27T17:48:11.273Z,57.99
2018-11-27T17:50:40.312Z,58.54
2018-11-27T17:53:09.343Z,58.48
2018-11-27T17:55:38.408Z,58.06
2018-11-27T17:58:07.435Z,57.20
2018-11-27T18:00:36.555Z,57.31
2018-11-27T18:03:07.673Z,57.78
2018-11-27T18:05:36.688Z,58.10
2018-11-27T18:08:06.745Z,57.17
2018-11-27T18:10:36.391Z,57.82
2018-11-27T18:13:06.297Z,57.77
2018-11-27T18:15:36.458Z,57.70
2018-11-27T18:18:05.961Z,57.53
2018-11-27T18:20:35.000Z,57.62
2018-11-27T18:23:04.064Z,57.69
2018-11-27T18:25:33.063Z,57.46
2018-11-27T18:28:02.216Z,57.66
2018-11-27T18:30:31.273Z,57.95
2018-11-27T18:33:00.319Z,57.67
2018-11-27T18:35:29.356Z,57.92
2018-11-27T18:37:58.504Z,57.44
2018-11-27T18:40:27.615Z,57.59
2018-11-27T18:42:56.823Z,58.16
2018-11-27T18:45:27.379Z,57.33
2018-11-27T18:47:56.476Z,58.02
2018-11-27T18:50:26.839Z,58.03
2018-11-27T18:52:55.922Z,57.87
2018-11-27T18:55:25.010Z,57.87
2018-11-27T18:57:54.137Z,57.91
2018-11-27T19:00:24.315Z,58.08
2018-11-27T19:02:53.580Z,58.29
2018-11-27T19:05:22.738Z,58.16
2018-11-27T19:07:51.864Z,58.33
2018-11-27T19:10:28.034Z,57.57
2018-11-27T19:12:57.287Z,57.87
2018-11-27T19:15:39.467Z,58.19
2018-11-27T19:18:15.671Z,57.79
2018-11-27T19:20:44.742Z,57.69
2018-11-27T19:23:13.819Z,58.31
2018-11-27T19:25:43.017Z,58.04
2018-11-27T19:28:12.094Z,57.83
2018-11-27T19:30:41.327Z,58.14
2018-11-27T19:33:10.686Z,58.21
2018-11-27T19:35:40.259Z,58.43
2018-11-27T19:38:12.941Z,58.12
2018-11-27T19:40:42.600Z,58.28
2018-11-27T19:43:11.748Z,58.46
2018-11-27T19:45:40.958Z,58.33
2018-11-27T19:48:10.802Z,58.02
2018-11-27T19:50:40.022Z,58.09
2018-11-27T19:53:12.457Z,58.69
2018-11-27T19:55:41.195Z,58.49
2018-11-27T19:58:10.823Z,57.74
2018-11-27T20:00:40.018Z,58.12
2018-11-27T20:03:10.661Z,58.13
2018-11-27T20:05:39.981Z,58.12
2018-11-27T20:08:14.063Z,57.76
2018-11-27T20:10:43.311Z,57.30
2018-11-27T20:13:12.786Z,57.94
2018-11-27T20:15:42.108Z,58.10
2018-11-27T20:18:11.276Z,58.30
2018-11-27T20:20:40.475Z,57.94
2018-11-27T20:23:09.874Z,58.05
2018-11-27T20:25:39.174Z,58.14
2018-11-27T20:28:09.384Z,58.72
2018-11-27T20:30:39.959Z,58.09
2018-11-27T20:33:09.245Z,58.94
2018-11-27T20:35:38.504Z,58.75
2018-11-27T20:38:09.272Z,58.64
2018-11-27T20:40:39.408Z,59.15
2018-11-27T20:43:08.914Z,58.70
2018-11-27T20:45:38.207Z,58.83
2018-11-27T20:48:17.659Z,58.56
2018-11-27T20:50:49.662Z,58.28
2018-11-27T20:53:18.947Z,58.06
2018-11-27T20:55:49.434Z,58.01
2018-11-27T20:58:18.570Z,57.98
2018-11-27T21:00:51.202Z,58.39
2018-11-27T21:03:20.451Z,58.31
2018-11-27T21:05:49.729Z,58.21
2018-11-27T21:08:18.875Z,58.36
2018-11-27T21:10:48.233Z,58.40
2018-11-27T21:13:17.344Z,58.24
2018-11-27T21:15:47.046Z,58.57
2018-11-27T21:18:16.213Z,58.21
2018-11-27T21:20:45.332Z,58.44
2018-11-27T21:23:14.480Z,58.61
2018-11-27T21:25:43.594Z,58.73
2018-11-27T21:28:15.350Z,58.96
2018-11-27T21:30:45.423Z,59.17
2018-11-27T21:33:14.544Z,59.28
2018-11-27T21:35:43.666Z,59.39
2018-11-27T21:38:13.083Z,59.38
2018-11-27T21:40:42.121Z,59.73
2018-11-27T21:43:11.197Z,59.93
2018-11-27T21:45:40.244Z,60.32
2018-11-27T21:48:09.336Z,60.56
2018-11-27T21:50:41.218Z,60.91
2018-11-27T21:53:10.279Z,61.13
2018-11-27T21:55:40.342Z,61.35
2018-11-27T21:58:10.415Z,61.48
2018-11-27T22:00:41.995Z,61.62
2018-11-27T22:03:15.528Z,62.18
2018-11-27T22:05:47.026Z,62.65
2018-11-27T22:08:16.044Z,62.99
2018-11-27T22:10:45.075Z,63.08
2018-11-27T22:13:21.467Z,63.46
2018-11-27T22:15:50.511Z,63.80
2018-11-27T22:18:19.521Z,64.13
2018-11-27T22:20:48.573Z,64.24
2018-11-27T22:23:17.580Z,64.61
2018-11-27T22:25:46.587Z,64.69
2018-11-27T22:28:15.648Z,64.76
2018-11-27T22:30:44.651Z,64.84
2018-11-27T22:33:13.895Z,64.85
2018-11-27T22:35:42.911Z,64.63
2018-11-27T22:38:11.965Z,65.02
2018-11-27T22:40:40.981Z,65.07
2018-11-27T22:43:10.005Z,65.08
2018-11-27T22:45:40.078Z,65.02
2018-11-27T22:48:10.597Z,64.61
2018-11-27T22:50:39.610Z,64.75
2018-11-27T22:53:09.392Z,64.92
2018-11-27T22:55:38.422Z,64.86
2018-11-27T22:58:08.082Z,65.04
2018-11-27T23:00:42.568Z,65.11
2018-11-27T23:03:11.546Z,65.18
2018-11-27T23:05:40.528Z,64.95
2018-11-27T23:08:09.585Z,65.11
2018-11-27T23:10:39.691Z,64.97
2018-11-27T23:13:08.742Z,65.00
2018-11-27T23:15:37.728Z,65.15
2018-11-27T23:18:06.702Z,65.20
2018-11-27T23:20:35.695Z,65.43
2018-11-27T23:23:04.814Z,65.58
2018-11-27T23:25:33.808Z,65.59
2018-11-27T23:28:02.837Z,65.67
2018-11-27T23:30:31.830Z,65.65
2018-11-27T23:33:00.820Z,65.77
2018-11-27T23:35:29.795Z,65.77
2018-11-27T23:37:58.757Z,66.10
2018-11-27T23:40:27.783Z,66.16
2018-11-27T23:42:56.787Z,66.10
2018-11-27T23:45:25.863Z,66.41
2018-11-27T23:47:54.856Z,66.46
2018-11-27T23:50:23.851Z,66.44
2018-11-27T23:52:52.822Z,66.18
2018-11-27T23:55:21.823Z,66.36
2018-11-27T23:57:50.846Z,66.42
